Time;durP1;ratioP1;P1;durP2;ratioP2;P2;SDS_P1;SDS_P2;PMS_P1;PMS_P2;Temp;Humidity;BMP_temperature;BMP_pressure;BME280_temperature;BME280_humidity;BME280_pressure;Samples;Min_cycle;Max_cycle;Signal;HPM_P1;HPM_P2
2022/04/22 00:08:40;;;;;;;14.25;7.32;;;4.70;99.90;;;;;;21185471;27;20035;-49
2022/04/22 00:18:43;;;;;;;13.70;7.63;;;4.60;99.90;;;;;;21135400;28;20031;-47
2022/04/22 00:28:47;;;;;;;11.88;6.50;;;4.60;99.90;;;;;;21152916;27;20092;-48
2022/04/22 00:38:49;;;;;;;11.45;6.80;;;4.70;99.90;;;;;;21186494;27;20047;-52
2022/04/22 00:48:52;;;;;;;12.25;7.50;;;4.70;99.90;;;;;;21211634;27;20096;-50
2022/04/22 00:58:57;;;;;;;16.65;7.30;;;4.80;99.90;;;;;;21211600;27;20035;-51
2022/04/22 01:19:21;;;;;;;9.98;6.50;;;4.80;99.90;;;;;;21215205;27;20039;-54
2022/04/22 01:29:25;;;;;;;11.23;6.53;;;4.80;99.90;;;;;;21210461;27;20043;-47
2022/04/22 01:39:29;;;;;;;8.68;5.38;;;4.80;99.90;;;;;;21214691;27;20051;-49
2022/04/22 01:49:31;;;;;;;9.68;6.10;;;4.80;99.90;;;;;;21209640;27;20388;-51
2022/04/22 01:59:34;;;;;;;10.70;5.78;;;4.90;99.90;;;;;;21207802;27;20035;-50
2022/04/22 02:09:36;;;;;;;11.70;6.82;;;5.00;99.90;;;;;;21211499;27;20448;-47
2022/04/22 02:19:40;;;;;;;11.02;6.65;;;5.00;99.90;;;;;;21211911;28;20043;-54
2022/04/22 02:29:43;;;;;;;10.70;6.70;;;4.90;99.90;;;;;;21201896;28;20407;-56
2022/04/22 02:39:45;;;;;;;10.55;5.45;;;4.80;99.90;;;;;;21186018;28;20051;-47
2022/04/22 02:49:48;;;;;;;8.27;4.80;;;4.90;99.90;;;;;;21209318;28;20112;-51
2022/04/22 02:59:50;;;;;;;7.50;4.75;;;4.90;99.90;;;;;;21193474;28;20096;-53
2022/04/22 03:09:53;;;;;;;6.18;4.22;;;5.10;99.90;;;;;;21136996;28;20039;-55
2022/04/22 03:19:55;;;;;;;5.50;3.97;;;5.20;99.90;;;;;;21156036;27;20096;-57
2022/04/22 03:29:58;;;;;;;5.65;3.83;;;5.30;99.90;;;;;;21186342;27;20104;-56
2022/04/22 03:40:02;;;;;;;3.50;2.38;;;5.40;99.90;;;;;;21183480;27;20048;-57
2022/04/22 03:50:05;;;;;;;2.35;1.40;;;5.40;99.90;;;;;;21222808;27;20039;-48
2022/04/22 04:00:08;;;;;;;1.95;1.23;;;5.40;99.90;;;;;;21213855;27;20035;-56
2022/04/22 04:30:55;;;;;;;2.17;0.93;;;5.60;99.90;;;;;;21218895;27;20043;-46
2022/04/22 04:40:58;;;;;;;1.58;1.02;;;5.60;99.90;;;;;;21218518;27;20047;-58
2022/04/22 04:51:00;;;;;;;1.13;0.90;;;5.60;99.90;;;;;;21201816;27;20035;-52
2022/04/22 05:01:03;;;;;;;1.42;0.90;;;5.60;99.90;;;;;;21217274;27;20087;-47
2022/04/22 05:11:06;;;;;;;2.08;1.10;;;5.60;99.90;;;;;;21216320;27;20035;-51
2022/04/22 05:21:08;;;;;;;0.80;0.40;;;5.60;99.90;;;;;;21229678;27;20023;-49
2022/04/22 05:41:32;;;;;;;0.60;0.30;;;5.80;99.90;;;;;;21210608;27;20100;-49
2022/04/22 05:51:34;;;;;;;0.85;0.50;;;5.70;99.90;;;;;;21210569;27;20296;-48
2022/04/22 06:01:40;;;;;;;1.80;1.30;;;5.60;99.90;;;;;;21227333;27;20042;-53
2022/04/22 06:11:43;;;;;;;4.68;2.58;;;5.60;99.90;;;;;;21139917;28;20039;-47
2022/04/22 06:21:45;;;;;;;5.88;3.45;;;5.60;99.90;;;;;;21211137;28;20111;-56
2022/04/22 06:31:49;;;;;;;6.85;4.28;;;5.60;99.90;;;;;;21211571;28;20027;-48
2022/04/22 06:52:14;;;;;;;6.13;4.45;;;5.50;99.90;;;;;;21129713;28;20064;-51
2022/04/22 07:02:16;;;;;;;4.93;3.80;;;5.70;99.90;;;;;;21222472;27;20031;-50
2022/04/22 07:12:20;;;;;;;5.03;3.33;;;6.00;99.90;;;;;;21217163;27;20069;-58
2022/04/22 07:22:23;;;;;;;7.40;3.22;;;6.20;99.90;;;;;;21210169;27;20040;-51
2022/04/22 07:32:27;;;;;;;4.35;3.00;;;6.30;99.90;;;;;;21161574;27;20043;-50
2022/04/22 07:42:29;;;;;;;3.92;2.28;;;6.60;99.90;;;;;;21153688;27;20039;-53
2022/04/22 07:52:33;;;;;;;4.60;2.78;;;6.60;99.90;;;;;;21211888;27;20066;-52
2022/04/22 08:02:40;;;;;;;4.47;3.10;;;6.90;99.90;;;;;;21201594;27;20068;-51
2022/04/22 08:12:43;;;;;;;10.27;4.00;;;7.00;99.90;;;;;;21220933;27;20056;-53
2022/04/22 08:22:45;;;;;;;4.43;3.17;;;7.10;99.90;;;;;;21160809;27;20039;-53
2022/04/22 08:32:49;;;;;;;5.30;3.30;;;7.40;99.90;;;;;;21134661;28;20039;-53
2022/04/22 08:42:52;;;;;;;4.97;3.17;;;7.70;99.90;;;;;;21160184;27;20101;-54
2022/04/22 08:53:02;;;;;;;6.30;3.70;;;7.90;99.90;;;;;;21132803;28;20047;-52
2022/04/22 09:03:05;;;;;;;5.40;3.47;;;8.30;99.90;;;;;;21163099;27;20666;-53
2022/04/22 09:13:10;;;;;;;3.95;3.00;;;8.60;99.90;;;;;;21198837;27;20342;-60
2022/04/22 09:23:35;;;;;;;4.32;2.90;;;9.10;99.90;;;;;;21194726;27;20039;-54
2022/04/22 09:33:41;;;;;;;4.93;3.50;;;9.10;99.90;;;;;;21212809;27;20092;-53
2022/04/22 09:43:47;;;;;;;3.70;2.60;;;9.10;99.90;;;;;;21213875;27;20400;-54
2022/04/22 09:54:21;;;;;;;5.18;3.35;;;9.00;99.90;;;;;;21208115;27;20096;-59
2022/04/22 10:04:24;;;;;;;4.47;2.58;;;8.90;99.90;;;;;;20868924;28;20068;-53
2022/04/22 10:14:37;;;;;;;4.22;2.50;;;9.00;99.90;;;;;;20861913;28;20049;-55
2022/04/22 10:24:41;;;;;;;5.35;3.00;;;9.00;99.90;;;;;;20865103;28;20095;-60
2022/04/22 10:34:45;;;;;;;9.35;6.15;;;9.50;99.90;;;;;;20973338;27;20095;-60
2022/04/22 10:55:10;;;;;;;8.20;5.93;;;10.60;99.90;;;;;;21227762;27;20076;-57
2022/04/22 11:05:18;;;;;;;9.65;6.28;;;11.20;99.90;;;;;;21226649;27;20057;-57
2022/04/22 11:15:43;;;;;;;8.07;6.10;;;11.30;99.90;;;;;;21209061;27;20035;-60
2022/04/22 11:25:46;;;;;;;12.35;7.95;;;10.90;99.90;;;;;;21224751;27;20163;-57
2022/04/22 11:35:59;;;;;;;42.72;10.70;;;9.90;99.90;;;;;;21215837;27;20441;-59
2022/04/22 11:46:01;;;;;;;408.30;26.75;;;9.00;99.90;;;;;;21222308;27;20051;-52
2022/04/22 11:56:07;;;;;;;430.38;26.00;;;8.50;99.90;;;;;;21219787;27;20031;-60
2022/04/22 12:06:15;;;;;;;453.88;26.33;;;8.10;99.90;;;;;;21221714;27;20400;-61
2022/04/22 12:16:26;;;;;;;1028.53;49.25;;;8.00;99.90;;;;;;21220955;27;20147;-60
2022/04/22 12:26:36;;;;;;;825.20;40.83;;;7.90;99.90;;;;;;21221612;27;20092;-61
2022/04/22 12:36:51;;;;;;;918.80;50.08;;;7.60;99.90;;;;;;21219748;27;20043;-61
2022/04/22 12:57:28;;;;;;;983.92;49.35;;;7.00;99.90;;;;;;21123522;28;20100;-52
2022/04/22 13:07:40;;;;;;;1029.78;51.30;;;7.00;99.90;;;;;;21105065;28;20085;-50
2022/04/22 13:17:45;;;;;;;777.72;43.72;;;7.00;99.90;;;;;;21098821;28;20062;-53
2022/04/22 13:27:49;;;;;;;418.63;28.38;;;7.20;99.90;;;;;;21120258;28;20089;-52
2022/04/22 13:37:52;;;;;;;1192.30;66.65;;;7.10;99.90;;;;;;21069042;28;20036;-51
2022/04/22 13:58:19;;;;;;;710.65;44.08;;;6.90;99.90;;;;;;21128506;28;20035;-53
2022/04/22 14:08:22;;;;;;;1077.32;63.30;;;6.80;99.90;;;;;;21182400;27;20035;-53
2022/04/22 14:18:30;;;;;;;831.55;49.47;;;6.70;99.90;;;;;;21212660;28;20039;-60
2022/04/22 14:28:33;;;;;;;979.63;57.75;;;6.80;99.90;;;;;;21128524;28;20068;-52
2022/04/22 14:38:36;;;;;;;981.00;52.30;;;6.80;99.90;;;;;;21175506;28;20046;-52
2022/04/22 14:48:40;;;;;;;935.08;54.55;;;6.80;99.90;;;;;;21188330;28;20406;-52
2022/04/22 14:58:43;;;;;;;1039.25;63.38;;;6.70;99.90;;;;;;21210594;28;20039;-52
2022/04/22 15:08:46;;;;;;;1198.15;69.25;;;6.70;99.90;;;;;;21210181;28;20080;-51
2022/04/22 15:29:13;;;;;;;626.47;42.63;;;6.80;99.90;;;;;;21183060;27;20038;-48
2022/04/22 15:39:18;;;;;;;323.60;28.83;;;7.10;99.90;;;;;;21154795;27;20051;-50
2022/04/22 15:49:22;;;;;;;162.52;19.60;;;7.30;99.90;;;;;;21138584;28;20066;-52
2022/04/22 15:59:24;;;;;;;50.13;15.35;;;7.60;99.90;;;;;;21219025;27;20416;-52
2022/04/22 16:09:28;;;;;;;18.30;11.85;;;7.90;99.90;;;;;;21221525;27;20072;-53
2022/04/22 16:19:32;;;;;;;15.43;10.65;;;8.10;99.90;;;;;;21220769;27;20452;-53
2022/04/22 16:29:35;;;;;;;572.25;34.13;;;8.40;99.90;;;;;;21220525;27;20083;-49
2022/04/22 16:39:39;;;;;;;780.35;49.83;;;8.40;99.90;;;;;;21219002;27;20055;-51
2022/04/22 16:49:43;;;;;;;938.10;58.20;;;7.80;99.90;;;;;;21204390;27;20039;-60
2022/04/22 16:59:45;;;;;;;1077.10;59.10;;;7.30;99.90;;;;;;21158153;27;20083;-52
2022/04/22 17:09:48;;;;;;;1204.45;68.97;;;7.00;99.90;;;;;;21159131;27;20089;-50
2022/04/22 17:30:13;;;;;;;987.65;54.42;;;6.70;99.90;;;;;;21204586;27;20039;-49
2022/04/22 17:40:20;;;;;;;910.03;51.10;;;6.60;99.90;;;;;;21142541;27;20051;-49
2022/04/22 17:50:24;;;;;;;884.70;53.70;;;6.50;99.90;;;;;;21212179;27;20032;-52
2022/04/22 18:00:27;;;;;;;1229.57;72.15;;;6.50;99.90;;;;;;21200581;27;20419;-53
2022/04/22 18:10:32;;;;;;;1122.90;66.88;;;6.50;99.90;;;;;;21212947;27;20038;-52
2022/04/22 18:20:37;;;;;;;983.92;63.95;;;6.40;99.90;;;;;;21212499;28;20039;-60
2022/04/22 18:30:40;;;;;;;641.70;43.95;;;6.30;99.90;;;;;;21212898;28;20396;-54
2022/04/22 18:40:43;;;;;;;900.13;59.15;;;6.30;99.90;;;;;;21202704;28;20043;-48
2022/04/22 18:50:48;;;;;;;898.30;59.92;;;6.30;99.90;;;;;;21203106;27;20035;-52
2022/04/22 19:00:50;;;;;;;948.67;61.95;;;6.30;99.90;;;;;;21227602;27;20035;-53
2022/04/22 19:10:53;;;;;;;959.30;61.70;;;6.30;99.90;;;;;;21226136;27;20084;-52
2022/04/22 19:20:56;;;;;;;556.80;39.55;;;6.30;99.90;;;;;;21224382;27;20031;-49
2022/04/22 19:30:58;;;;;;;614.10;42.30;;;6.20;99.90;;;;;;21224476;27;20035;-51
2022/04/22 19:41:01;;;;;;;422.17;36.92;;;6.20;99.90;;;;;;21224725;27;20047;-51
2022/04/22 19:51:05;;;;;;;415.50;37.88;;;6.20;99.90;;;;;;21223440;27;20104;-52
2022/04/22 20:01:07;;;;;;;334.65;32.38;;;6.20;99.90;;;;;;21217766;27;20039;-50
2022/04/22 20:11:13;;;;;;;490.08;42.08;;;6.20;99.90;;;;;;21221573;27;20088;-51
2022/04/22 20:21:18;;;;;;;469.15;39.10;;;6.20;99.90;;;;;;21237728;27;20043;-49
2022/04/22 20:31:21;;;;;;;180.77;24.80;;;6.20;99.90;;;;;;21219801;27;20031;-51
2022/04/22 20:41:23;;;;;;;300.83;29.17;;;6.20;99.90;;;;;;21200933;27;20076;-50
2022/04/22 20:51:27;;;;;;;390.70;36.25;;;6.20;99.90;;;;;;21200649;27;20100;-51
2022/04/22 21:01:30;;;;;;;302.88;31.27;;;6.20;99.90;;;;;;21217342;27;20084;-60
2022/04/22 21:11:33;;;;;;;258.95;31.77;;;6.20;99.90;;;;;;21216290;27;20024;-52
2022/04/22 21:21:35;;;;;;;228.07;29.33;;;6.30;99.90;;;;;;21211578;27;20065;-50
2022/04/22 21:31:38;;;;;;;271.48;31.42;;;6.30;99.90;;;;;;21215120;27;20034;-58
2022/04/22 21:41:41;;;;;;;233.00;28.80;;;6.30;99.90;;;;;;21205589;27;20055;-49
2022/04/22 21:51:45;;;;;;;46.40;22.40;;;6.30;99.90;;;;;;21210859;27;20073;-52
2022/04/22 22:01:47;;;;;;;98.13;24.65;;;6.20;99.90;;;;;;21213066;27;20031;-52
2022/04/22 22:11:50;;;;;;;270.88;30.50;;;6.10;99.90;;;;;;21213346;27;20035;-52
2022/04/22 22:21:52;;;;;;;324.15;33.15;;;6.10;99.90;;;;;;21214882;27;20372;-52
2022/04/22 22:31:55;;;;;;;99.90;25.80;;;6.10;99.90;;;;;;21230111;27;20035;-50
2022/04/22 22:41:57;;;;;;;44.30;22.40;;;6.10;99.90;;;;;;21227886;27;20043;-48
2022/04/22 22:52:01;;;;;;;50.95;25.02;;;6.00;99.90;;;;;;21229072;27;20099;-48
2022/04/22 23:02:03;;;;;;;50.20;25.23;;;6.00;99.90;;;;;;21228340;27;20035;-49
2022/04/22 23:12:07;;;;;;;45.55;23.85;;;6.00;99.90;;;;;;21218541;27;20039;-50
2022/04/22 23:22:10;;;;;;;343.42;35.33;;;5.90;99.90;;;;;;21223831;27;20031;-50
2022/04/22 23:32:12;;;;;;;462.48;39.88;;;5.90;99.90;;;;;;21212610;27;20031;-49
2022/04/22 23:42:19;;;;;;;51.75;25.30;;;5.90;99.90;;;;;;21224744;27;20059;-49
2022/04/22 23:52:22;;;;;;;83.28;29.52;;;5.90;99.90;;;;;;21222725;27;20084;-51
